sensor_id;sensor_type;location;lat;lon;timestamp;temperature;humidity
83660;SHT30;73632;50.808;3.422;2024-01-07T00:01:15;4.20;86.35
83660;SHT30;73632;50.808;3.422;2024-01-07T00:03:41;4.15;86.73
83660;SHT30;73632;50.808;3.422;2024-01-07T00:06:07;4.17;86.88
83660;SHT30;73632;50.808;3.422;2024-01-07T00:08:33;4.17;87.04
83660;SHT30;73632;50.808;3.422;2024-01-07T00:10:58;4.17;86.51
83660;SHT30;73632;50.808;3.422;2024-01-07T00:13:24;4.13;86.22
83660;SHT30;73632;50.808;3.422;2024-01-07T00:15:49;4.05;86.77
83660;SHT30;73632;50.808;3.422;2024-01-07T00:18:15;3.94;87.10
83660;SHT30;73632;50.808;3.422;2024-01-07T00:20:40;3.83;86.92
83660;SHT30;73632;50.808;3.422;2024-01-07T00:23:05;3.76;87.39
83660;SHT30;73632;50.808;3.422;2024-01-07T00:25:31;3.69;87.49
83660;SHT30;73632;50.808;3.422;2024-01-07T00:27:56;3.63;87.60
83660;SHT30;73632;50.808;3.422;2024-01-07T00:30:22;3.56;87.55
83660;SHT30;73632;50.808;3.422;2024-01-07T00:32:47;3.55;88.03
83660;SHT30;73632;50.808;3.422;2024-01-07T00:35:16;3.50;88.41
83660;SHT30;73632;50.808;3.422;2024-01-07T00:37:42;3.47;87.97
83660;SHT30;73632;50.808;3.422;2024-01-07T00:40:08;3.40;88.08
83660;SHT30;73632;50.808;3.422;2024-01-07T00:42:33;3.42;88.38
83660;SHT30;73632;50.808;3.422;2024-01-07T00:44:59;3.42;88.63
83660;SHT30;73632;50.808;3.422;2024-01-07T00:47:24;3.42;88.40
83660;SHT30;73632;50.808;3.422;2024-01-07T00:49:49;3.46;88.63
83660;SHT30;73632;50.808;3.422;2024-01-07T00:52:15;3.47;88.42
83660;SHT30;73632;50.808;3.422;2024-01-07T00:54:40;3.50;88.35
83660;SHT30;73632;50.808;3.422;2024-01-07T00:57:06;3.55;88.30
83660;SHT30;73632;50.808;3.422;2024-01-07T00:59:31;3.52;88.22
83660;SHT30;73632;50.808;3.422;2024-01-07T01:01:57;3.49;88.29
83660;SHT30;73632;50.808;3.422;2024-01-07T01:04:22;3.40;88.21
83660;SHT30;73632;50.808;3.422;2024-01-07T01:06:47;3.36;88.41
83660;SHT30;73632;50.808;3.422;2024-01-07T01:09:13;3.36;88.20
83660;SHT30;73632;50.808;3.422;2024-01-07T01:11:38;3.35;88.04
83660;SHT30;73632;50.808;3.422;2024-01-07T01:14:04;3.26;88.05
83660;SHT30;73632;50.808;3.422;2024-01-07T01:16:29;3.23;87.91
83660;SHT30;73632;50.808;3.422;2024-01-07T01:18:54;3.26;88.01
83660;SHT30;73632;50.808;3.422;2024-01-07T01:21:20;3.25;87.73
83660;SHT30;73632;50.808;3.422;2024-01-07T01:23:46;3.20;87.59
83660;SHT30;73632;50.808;3.422;2024-01-07T01:26:12;3.11;88.20
83660;SHT30;73632;50.808;3.422;2024-01-07T01:28:38;3.02;88.60
83660;SHT30;73632;50.808;3.422;2024-01-07T01:31:03;2.95;88.76
83660;SHT30;73632;50.808;3.422;2024-01-07T01:33:28;2.92;88.85
83660;SHT30;73632;50.808;3.422;2024-01-07T01:35:54;2.89;89.14
83660;SHT30;73632;50.808;3.422;2024-01-07T01:38:19;2.91;88.81
83660;SHT30;73632;50.808;3.422;2024-01-07T01:40:53;2.95;88.76
83660;SHT30;73632;50.808;3.422;2024-01-07T01:43:26;2.88;88.71
83660;SHT30;73632;50.808;3.422;2024-01-07T01:45:55;2.85;89.06
83660;SHT30;73632;50.808;3.422;2024-01-07T01:48:22;2.84;89.31
83660;SHT30;73632;50.808;3.422;2024-01-07T01:50:49;2.89;88.63
83660;SHT30;73632;50.808;3.422;2024-01-07T01:53:15;2.84;88.38
83660;SHT30;73632;50.808;3.422;2024-01-07T01:55:42;2.82;88.40
83660;SHT30;73632;50.808;3.422;2024-01-07T01:58:13;2.77;88.59
83660;SHT30;73632;50.808;3.422;2024-01-07T02:00:39;2.75;88.62
83660;SHT30;73632;50.808;3.422;2024-01-07T02:03:04;2.71;88.54
83660;SHT30;73632;50.808;3.422;2024-01-07T02:05:30;2.65;87.88
83660;SHT30;73632;50.808;3.422;2024-01-07T02:07:56;2.68;88.14
83660;SHT30;73632;50.808;3.422;2024-01-07T02:10:22;2.68;88.30
83660;SHT30;73632;50.808;3.422;2024-01-07T02:12:47;2.71;88.35
83660;SHT30;73632;50.808;3.422;2024-01-07T02:15:14;2.71;87.83
83660;SHT30;73632;50.808;3.422;2024-01-07T02:17:39;2.72;87.42
83660;SHT30;73632;50.808;3.422;2024-01-07T02:20:05;2.70;87.58
83660;SHT30;73632;50.808;3.422;2024-01-07T02:22:30;2.68;87.52
83660;SHT30;73632;50.808;3.422;2024-01-07T02:24:56;2.72;86.58
83660;SHT30;73632;50.808;3.422;2024-01-07T02:27:21;2.78;85.83
83660;SHT30;73632;50.808;3.422;2024-01-07T02:29:46;2.77;85.78
83660;SHT30;73632;50.808;3.422;2024-01-07T02:32:12;2.84;85.42
83660;SHT30;73632;50.808;3.422;2024-01-07T02:34:37;2.89;84.56
83660;SHT30;73632;50.808;3.422;2024-01-07T02:37:03;2.99;84.17
83660;SHT30;73632;50.808;3.422;2024-01-07T02:39:28;3.08;83.62
83660;SHT30;73632;50.808;3.422;2024-01-07T02:41:54;3.06;83.82
83660;SHT30;73632;50.808;3.422;2024-01-07T02:44:19;3.15;83.06
83660;SHT30;73632;50.808;3.422;2024-01-07T02:46:44;3.22;82.69
83660;SHT30;73632;50.808;3.422;2024-01-07T02:49:12;3.25;83.21
83660;SHT30;73632;50.808;3.422;2024-01-07T02:51:37;3.23;83.40
83660;SHT30;73632;50.808;3.422;2024-01-07T02:54:03;3.19;82.83
83660;SHT30;73632;50.808;3.422;2024-01-07T02:56:28;3.18;83.44
83660;SHT30;73632;50.808;3.422;2024-01-07T02:58:54;3.20;82.56
83660;SHT30;73632;50.808;3.422;2024-01-07T03:01:22;3.18;82.37
83660;SHT30;73632;50.808;3.422;2024-01-07T03:03:48;3.22;81.76
83660;SHT30;73632;50.808;3.422;2024-01-07T03:06:13;3.20;81.32
83660;SHT30;73632;50.808;3.422;2024-01-07T03:08:39;3.32;80.63
83660;SHT30;73632;50.808;3.422;2024-01-07T03:11:05;3.26;79.88
83660;SHT30;73632;50.808;3.422;2024-01-07T03:13:31;3.19;80.54
83660;SHT30;73632;50.808;3.422;2024-01-07T03:15:57;3.15;80.08
83660;SHT30;73632;50.808;3.422;2024-01-07T03:18:22;3.27;79.50
83660;SHT30;73632;50.808;3.422;2024-01-07T03:20:48;3.22;80.07
83660;SHT30;73632;50.808;3.422;2024-01-07T03:23:13;3.25;79.76
83660;SHT30;73632;50.808;3.422;2024-01-07T03:25:38;3.29;79.94
83660;SHT30;73632;50.808;3.422;2024-01-07T03:28:04;3.32;79.62
83660;SHT30;73632;50.808;3.422;2024-01-07T03:30:30;3.25;79.78
83660;SHT30;73632;50.808;3.422;2024-01-07T03:32:55;3.20;80.41
83660;SHT30;73632;50.808;3.422;2024-01-07T03:35:21;3.25;80.22
83660;SHT30;73632;50.808;3.422;2024-01-07T03:37:48;3.29;80.17
83660;SHT30;73632;50.808;3.422;2024-01-07T03:40:13;3.22;80.12
83660;SHT30;73632;50.808;3.422;2024-01-07T03:42:39;3.20;81.06
83660;SHT30;73632;50.808;3.422;2024-01-07T03:45:05;3.19;81.13
83660;SHT30;73632;50.808;3.422;2024-01-07T03:47:30;3.23;80.67
83660;SHT30;73632;50.808;3.422;2024-01-07T03:49:56;3.16;81.39
83660;SHT30;73632;50.808;3.422;2024-01-07T03:52:22;3.18;80.85
83660;SHT30;73632;50.808;3.422;2024-01-07T03:54:47;3.23;81.08
83660;SHT30;73632;50.808;3.422;2024-01-07T03:57:13;3.20;81.09
83660;SHT30;73632;50.808;3.422;2024-01-07T03:59:38;3.22;81.15
83660;SHT30;73632;50.808;3.422;2024-01-07T04:02:03;3.22;81.17
83660;SHT30;73632;50.808;3.422;2024-01-07T04:04:29;3.23;80.73
83660;SHT30;73632;50.808;3.422;2024-01-07T04:06:54;3.27;80.58
83660;SHT30;73632;50.808;3.422;2024-01-07T04:09:20;3.23;81.16
83660;SHT30;73632;50.808;3.422;2024-01-07T04:11:45;3.15;80.86
83660;SHT30;73632;50.808;3.422;2024-01-07T04:14:14;3.22;81.17
83660;SHT30;73632;50.808;3.422;2024-01-07T04:16:39;3.18;80.96
83660;SHT30;73632;50.808;3.422;2024-01-07T04:19:05;3.20;81.15
83660;SHT30;73632;50.808;3.422;2024-01-07T04:21:30;3.20;81.45
83660;SHT30;73632;50.808;3.422;2024-01-07T04:23:55;3.26;80.61
83660;SHT30;73632;50.808;3.422;2024-01-07T04:26:21;3.13;81.41
83660;SHT30;73632;50.808;3.422;2024-01-07T04:28:46;3.11;81.43
83660;SHT30;73632;50.808;3.422;2024-01-07T04:31:12;3.06;81.16
83660;SHT30;73632;50.808;3.422;2024-01-07T04:33:37;2.98;81.79
83660;SHT30;73632;50.808;3.422;2024-01-07T04:36:03;2.98;81.64
83660;SHT30;73632;50.808;3.422;2024-01-07T04:38:29;3.02;81.07
83660;SHT30;73632;50.808;3.422;2024-01-07T04:40:55;2.99;81.57
83660;SHT30;73632;50.808;3.422;2024-01-07T04:43:20;3.04;81.17
83660;SHT30;73632;50.808;3.422;2024-01-07T04:45:46;2.87;82.10
83660;SHT30;73632;50.808;3.422;2024-01-07T04:48:12;2.96;81.77
83660;SHT30;73632;50.808;3.422;2024-01-07T04:50:39;2.92;82.15
83660;SHT30;73632;50.808;3.422;2024-01-07T04:53:07;2.88;82.28
83660;SHT30;73632;50.808;3.422;2024-01-07T04:55:32;2.88;82.35
83660;SHT30;73632;50.808;3.422;2024-01-07T04:57:58;2.94;81.70
83660;SHT30;73632;50.808;3.422;2024-01-07T05:00:23;2.88;81.83
83660;SHT30;73632;50.808;3.422;2024-01-07T05:02:48;2.87;82.88
83660;SHT30;73632;50.808;3.422;2024-01-07T05:05:14;3.01;81.61
83660;SHT30;73632;50.808;3.422;2024-01-07T05:07:39;2.96;81.70
83660;SHT30;73632;50.808;3.422;2024-01-07T05:10:05;2.91;82.13
83660;SHT30;73632;50.808;3.422;2024-01-07T05:12:31;2.99;81.55
83660;SHT30;73632;50.808;3.422;2024-01-07T05:14:56;2.92;81.53
83660;SHT30;73632;50.808;3.422;2024-01-07T05:17:22;2.87;82.40
83660;SHT30;73632;50.808;3.422;2024-01-07T05:19:47;2.85;82.44
83660;SHT30;73632;50.808;3.422;2024-01-07T05:22:13;2.99;81.97
83660;SHT30;73632;50.808;3.422;2024-01-07T05:24:38;2.95;82.56
83660;SHT30;73632;50.808;3.422;2024-01-07T05:27:04;2.82;83.32
83660;SHT30;73632;50.808;3.422;2024-01-07T05:29:29;2.91;83.06
83660;SHT30;73632;50.808;3.422;2024-01-07T05:31:55;2.95;82.70
83660;SHT30;73632;50.808;3.422;2024-01-07T05:34:20;2.92;82.79
83660;SHT30;73632;50.808;3.422;2024-01-07T05:36:46;2.99;82.70
83660;SHT30;73632;50.808;3.422;2024-01-07T05:39:11;2.96;82.89
83660;SHT30;73632;50.808;3.422;2024-01-07T05:41:37;2.94;82.69
83660;SHT30;73632;50.808;3.422;2024-01-07T05:44:06;2.85;83.19
83660;SHT30;73632;50.808;3.422;2024-01-07T05:46:32;2.75;83.87
83660;SHT30;73632;50.808;3.422;2024-01-07T05:48:57;2.87;83.43
83660;SHT30;73632;50.808;3.422;2024-01-07T05:51:22;2.95;83.67
83660;SHT30;73632;50.808;3.422;2024-01-07T05:53:48;3.02;83.80
83660;SHT30;73632;50.808;3.422;2024-01-07T05:56:13;2.88;84.11
83660;SHT30;73632;50.808;3.422;2024-01-07T05:58:39;2.95;84.07
83660;SHT30;73632;50.808;3.422;2024-01-07T06:01:05;2.82;84.52
83660;SHT30;73632;50.808;3.422;2024-01-07T06:03:32;2.88;82.43
83660;SHT30;73632;50.808;3.422;2024-01-07T06:05:58;2.84;83.03
83660;SHT30;73632;50.808;3.422;2024-01-07T06:08:24;2.88;82.48
83660;SHT30;73632;50.808;3.422;2024-01-07T06:10:49;2.82;82.12
83660;SHT30;73632;50.808;3.422;2024-01-07T06:13:15;2.80;81.73
83660;SHT30;73632;50.808;3.422;2024-01-07T06:15:40;2.78;81.88
83660;SHT30;73632;50.808;3.422;2024-01-07T06:18:06;2.81;81.50
83660;SHT30;73632;50.808;3.422;2024-01-07T06:20:31;2.84;81.28
83660;SHT30;73632;50.808;3.422;2024-01-07T06:22:56;2.82;80.33
83660;SHT30;73632;50.808;3.422;2024-01-07T06:25:22;2.78;81.15
83660;SHT30;73632;50.808;3.422;2024-01-07T06:27:48;2.71;81.76
83660;SHT30;73632;50.808;3.422;2024-01-07T06:30:13;2.74;81.60
83660;SHT30;73632;50.808;3.422;2024-01-07T06:32:39;2.72;81.45
83660;SHT30;73632;50.808;3.422;2024-01-07T06:35:04;2.78;81.23
83660;SHT30;73632;50.808;3.422;2024-01-07T06:37:30;2.77;80.89
83660;SHT30;73632;50.808;3.422;2024-01-07T06:39:56;2.68;81.19
83660;SHT30;73632;50.808;3.422;2024-01-07T06:42:23;2.77;80.92
83660;SHT30;73632;50.808;3.422;2024-01-07T06:44:52;2.70;80.56
83660;SHT30;73632;50.808;3.422;2024-01-07T06:47:17;2.64;81.41
83660;SHT30;73632;50.808;3.422;2024-01-07T06:49:43;2.65;81.05
83660;SHT30;73632;50.808;3.422;2024-01-07T06:52:08;2.68;80.50
83660;SHT30;73632;50.808;3.422;2024-01-07T06:54:33;2.61;79.95
83660;SHT30;73632;50.808;3.422;2024-01-07T06:56:59;2.66;80.27
83660;SHT30;73632;50.808;3.422;2024-01-07T06:59:24;2.61;80.26
83660;SHT30;73632;50.808;3.422;2024-01-07T07:01:50;2.55;80.91
83660;SHT30;73632;50.808;3.422;2024-01-07T07:04:15;2.57;80.86
83660;SHT30;73632;50.808;3.422;2024-01-07T07:06:40;2.64;80.83
83660;SHT30;73632;50.808;3.422;2024-01-07T07:09:06;2.62;81.19
83660;SHT30;73632;50.808;3.422;2024-01-07T07:11:32;2.71;80.90
83660;SHT30;73632;50.808;3.422;2024-01-07T07:13:57;2.72;80.30
83660;SHT30;73632;50.808;3.422;2024-01-07T07:16:23;2.68;80.59
83660;SHT30;73632;50.808;3.422;2024-01-07T07:18:48;2.65;80.98
83660;SHT30;73632;50.808;3.422;2024-01-07T07:21:13;2.68;80.67
83660;SHT30;73632;50.808;3.422;2024-01-07T07:23:39;2.70;80.94
83660;SHT30;73632;50.808;3.422;2024-01-07T07:26:04;2.74;80.63
83660;SHT30;73632;50.808;3.422;2024-01-07T07:28:30;2.68;81.11
83660;SHT30;73632;50.808;3.422;2024-01-07T07:30:55;2.72;80.80
83660;SHT30;73632;50.808;3.422;2024-01-07T07:33:20;2.78;80.16
83660;SHT30;73632;50.808;3.422;2024-01-07T07:35:46;2.68;80.65
83660;SHT30;73632;50.808;3.422;2024-01-07T07:38:11;2.71;81.24
83660;SHT30;73632;50.808;3.422;2024-01-07T07:40:37;2.65;81.37
83660;SHT30;73632;50.808;3.422;2024-01-07T07:43:02;2.71;80.72
83660;SHT30;73632;50.808;3.422;2024-01-07T07:45:28;2.71;81.15
83660;SHT30;73632;50.808;3.422;2024-01-07T07:47:53;2.71;80.95
83660;SHT30;73632;50.808;3.422;2024-01-07T07:50:19;2.61;81.44
83660;SHT30;73632;50.808;3.422;2024-01-07T07:52:44;2.58;81.92
83660;SHT30;73632;50.808;3.422;2024-01-07T07:55:10;2.66;81.71
83660;SHT30;73632;50.808;3.422;2024-01-07T07:57:36;2.64;81.77
83660;SHT30;73632;50.808;3.422;2024-01-07T08:00:04;2.65;81.72
83660;SHT30;73632;50.808;3.422;2024-01-07T08:02:30;2.70;81.99
83660;SHT30;73632;50.808;3.422;2024-01-07T08:04:55;2.64;81.66
83660;SHT30;73632;50.808;3.422;2024-01-07T08:07:21;2.55;82.51
83660;SHT30;73632;50.808;3.422;2024-01-07T08:09:46;2.71;81.74
83660;SHT30;73632;50.808;3.422;2024-01-07T08:12:12;2.70;81.61
83660;SHT30;73632;50.808;3.422;2024-01-07T08:14:38;2.72;82.17
83660;SHT30;73632;50.808;3.422;2024-01-07T08:17:09;2.72;81.60
83660;SHT30;73632;50.808;3.422;2024-01-07T08:19:36;2.72;82.07
83660;SHT30;73632;50.808;3.422;2024-01-07T08:22:01;2.64;82.31
83660;SHT30;73632;50.808;3.422;2024-01-07T08:24:26;2.62;82.64
83660;SHT30;73632;50.808;3.422;2024-01-07T08:26:52;2.60;82.82
83660;SHT30;73632;50.808;3.422;2024-01-07T08:29:18;2.54;83.07
83660;SHT30;73632;50.808;3.422;2024-01-07T08:31:43;2.65;83.11
83660;SHT30;73632;50.808;3.422;2024-01-07T08:34:09;2.66;82.89
83660;SHT30;73632;50.808;3.422;2024-01-07T08:36:34;2.65;82.86
83660;SHT30;73632;50.808;3.422;2024-01-07T08:38:59;2.64;82.95
83660;SHT30;73632;50.808;3.422;2024-01-07T08:41:27;2.64;82.96
83660;SHT30;73632;50.808;3.422;2024-01-07T08:43:53;2.66;82.91
83660;SHT30;73632;50.808;3.422;2024-01-07T08:46:21;2.62;83.28
83660;SHT30;73632;50.808;3.422;2024-01-07T08:48:47;2.62;83.54
83660;SHT30;73632;50.808;3.422;2024-01-07T08:51:13;2.66;83.52
83660;SHT30;73632;50.808;3.422;2024-01-07T08:53:39;2.58;83.69
83660;SHT30;73632;50.808;3.422;2024-01-07T08:56:04;2.62;83.21
83660;SHT30;73632;50.808;3.422;2024-01-07T08:58:32;2.68;82.93
83660;SHT30;73632;50.808;3.422;2024-01-07T09:00:57;2.65;83.33
83660;SHT30;73632;50.808;3.422;2024-01-07T09:03:26;2.64;83.67
83660;SHT30;73632;50.808;3.422;2024-01-07T09:05:54;2.72;82.69
83660;SHT30;73632;50.808;3.422;2024-01-07T09:08:19;2.65;83.47
83660;SHT30;73632;50.808;3.422;2024-01-07T09:10:45;2.66;83.65
83660;SHT30;73632;50.808;3.422;2024-01-07T09:13:10;2.64;83.92
83660;SHT30;73632;50.808;3.422;2024-01-07T09:15:36;2.64;84.16
83660;SHT30;73632;50.808;3.422;2024-01-07T09:18:01;2.71;84.42
83660;SHT30;73632;50.808;3.422;2024-01-07T09:20:27;2.77;83.63
83660;SHT30;73632;50.808;3.422;2024-01-07T09:22:52;2.74;83.19
83660;SHT30;73632;50.808;3.422;2024-01-07T09:25:18;2.70;83.29
83660;SHT30;73632;50.808;3.422;2024-01-07T09:27:43;2.72;83.13
83660;SHT30;73632;50.808;3.422;2024-01-07T09:30:09;2.74;83.29
83660;SHT30;73632;50.808;3.422;2024-01-07T09:32:40;2.88;83.03
83660;SHT30;73632;50.808;3.422;2024-01-07T09:35:06;2.78;83.51
83660;SHT30;73632;50.808;3.422;2024-01-07T09:37:31;2.78;83.95
83660;SHT30;73632;50.808;3.422;2024-01-07T09:39:57;2.95;83.34
83660;SHT30;73632;50.808;3.422;2024-01-07T09:42:22;2.84;84.14
83660;SHT30;73632;50.808;3.422;2024-01-07T09:44:51;2.89;83.38
83660;SHT30;73632;50.808;3.422;2024-01-07T09:47:17;2.98;82.91
83660;SHT30;73632;50.808;3.422;2024-01-07T09:49:43;2.91;83.12
83660;SHT30;73632;50.808;3.422;2024-01-07T09:52:10;2.94;83.30
83660;SHT30;73632;50.808;3.422;2024-01-07T09:54:40;2.88;84.01
83660;SHT30;73632;50.808;3.422;2024-01-07T09:57:07;2.87;83.50
83660;SHT30;73632;50.808;3.422;2024-01-07T09:59:33;2.87;83.97
83660;SHT30;73632;50.808;3.422;2024-01-07T10:01:59;2.88;83.69
83660;SHT30;73632;50.808;3.422;2024-01-07T10:04:25;2.84;83.52
83660;SHT30;73632;50.808;3.422;2024-01-07T10:06:51;2.81;83.79
83660;SHT30;73632;50.808;3.422;2024-01-07T10:09:22;2.81;83.91
83660;SHT30;73632;50.808;3.422;2024-01-07T10:11:49;2.77;83.65
83660;SHT30;73632;50.808;3.422;2024-01-07T10:14:15;2.80;83.96
83660;SHT30;73632;50.808;3.422;2024-01-07T10:16:40;2.81;84.06
83660;SHT30;73632;50.808;3.422;2024-01-07T10:19:06;2.81;84.61
83660;SHT30;73632;50.808;3.422;2024-01-07T10:21:33;2.85;84.14
83660;SHT30;73632;50.808;3.422;2024-01-07T10:24:09;2.78;83.46
83660;SHT30;73632;50.808;3.422;2024-01-07T10:26:37;2.72;83.60
83660;SHT30;73632;50.808;3.422;2024-01-07T10:29:02;2.75;84.30
83660;SHT30;73632;50.808;3.422;2024-01-07T10:31:27;2.80;83.60
83660;SHT30;73632;50.808;3.422;2024-01-07T10:33:56;2.70;83.76
83660;SHT30;73632;50.808;3.422;2024-01-07T10:36:22;2.68;84.04
83660;SHT30;73632;50.808;3.422;2024-01-07T10:38:47;2.75;83.73
83660;SHT30;73632;50.808;3.422;2024-01-07T10:41:14;2.70;83.69
83660;SHT30;73632;50.808;3.422;2024-01-07T10:43:42;2.62;84.21
83660;SHT30;73632;50.808;3.422;2024-01-07T10:46:09;2.68;84.31
83660;SHT30;73632;50.808;3.422;2024-01-07T10:48:38;2.75;84.39
83660;SHT30;73632;50.808;3.422;2024-01-07T10:51:03;2.78;83.27
83660;SHT30;73632;50.808;3.422;2024-01-07T10:53:33;2.71;84.25
83660;SHT30;73632;50.808;3.422;2024-01-07T10:56:08;2.75;83.62
83660;SHT30;73632;50.808;3.422;2024-01-07T10:58:37;2.72;83.75
83660;SHT30;73632;50.808;3.422;2024-01-07T11:01:03;2.68;83.80
83660;SHT30;73632;50.808;3.422;2024-01-07T11:03:43;2.66;84.05
83660;SHT30;73632;50.808;3.422;2024-01-07T11:06:38;2.60;84.48
83660;SHT30;73632;50.808;3.422;2024-01-07T11:09:32;2.62;83.80
83660;SHT30;73632;50.808;3.422;2024-01-07T11:11:59;2.54;83.86
83660;SHT30;73632;50.808;3.422;2024-01-07T11:14:38;2.52;84.14
83660;SHT30;73632;50.808;3.422;2024-01-07T11:17:10;2.58;84.28
83660;SHT30;73632;50.808;3.422;2024-01-07T11:19:36;2.64;84.27
83660;SHT30;73632;50.808;3.422;2024-01-07T11:22:21;2.65;83.98
83660;SHT30;73632;50.808;3.422;2024-01-07T11:24:47;2.57;83.83
83660;SHT30;73632;50.808;3.422;2024-01-07T11:27:15;2.45;84.74
83660;SHT30;73632;50.808;3.422;2024-01-07T11:29:41;2.50;83.72
83660;SHT30;73632;50.808;3.422;2024-01-07T11:32:06;2.47;83.06
83660;SHT30;73632;50.808;3.422;2024-01-07T11:34:41;2.48;83.18
83660;SHT30;73632;50.808;3.422;2024-01-07T11:37:14;2.57;82.78
83660;SHT30;73632;50.808;3.422;2024-01-07T11:39:45;2.50;81.65
83660;SHT30;73632;50.808;3.422;2024-01-07T11:42:10;2.44;82.45
83660;SHT30;73632;50.808;3.422;2024-01-07T11:44:37;2.48;81.68
83660;SHT30;73632;50.808;3.422;2024-01-07T11:47:04;2.45;81.74
83660;SHT30;73632;50.808;3.422;2024-01-07T11:49:31;2.52;80.94
83660;SHT30;73632;50.808;3.422;2024-01-07T11:51:57;2.48;81.16
83660;SHT30;73632;50.808;3.422;2024-01-07T11:54:22;2.58;80.81
83660;SHT30;73632;50.808;3.422;2024-01-07T11:56:48;2.60;80.89
83660;SHT30;73632;50.808;3.422;2024-01-07T11:59:13;2.58;80.43
83660;SHT30;73632;50.808;3.422;2024-01-07T12:01:39;2.61;80.61
83660;SHT30;73632;50.808;3.422;2024-01-07T12:04:04;2.71;80.23
83660;SHT30;73632;50.808;3.422;2024-01-07T12:06:30;2.64;79.93
83660;SHT30;73632;50.808;3.422;2024-01-07T12:08:55;2.66;80.33
83660;SHT30;73632;50.808;3.422;2024-01-07T12:11:21;2.68;80.00
83660;SHT30;73632;50.808;3.422;2024-01-07T12:13:46;2.64;80.55
83660;SHT30;73632;50.808;3.422;2024-01-07T12:16:12;2.66;80.81
83660;SHT30;73632;50.808;3.422;2024-01-07T12:18:39;2.66;80.63
83660;SHT30;73632;50.808;3.422;2024-01-07T12:21:04;2.81;80.01
83660;SHT30;73632;50.808;3.422;2024-01-07T12:23:34;2.68;79.79
83660;SHT30;73632;50.808;3.422;2024-01-07T12:26:10;2.64;79.20
83660;SHT30;73632;50.808;3.422;2024-01-07T12:28:39;2.55;79.92
83660;SHT30;73632;50.808;3.422;2024-01-07T12:31:05;2.51;80.36
83660;SHT30;73632;50.808;3.422;2024-01-07T12:33:31;2.52;80.40
83660;SHT30;73632;50.808;3.422;2024-01-07T12:35:57;2.61;80.25
83660;SHT30;73632;50.808;3.422;2024-01-07T12:38:29;2.60;80.42
83660;SHT30;73632;50.808;3.422;2024-01-07T12:40:55;2.61;79.84
83660;SHT30;73632;50.808;3.422;2024-01-07T12:43:21;2.51;79.69
83660;SHT30;73632;50.808;3.422;2024-01-07T12:45:48;2.47;80.22
83660;SHT30;73632;50.808;3.422;2024-01-07T12:48:13;2.40;80.82
83660;SHT30;73632;50.808;3.422;2024-01-07T12:50:39;2.42;80.82
83660;SHT30;73632;50.808;3.422;2024-01-07T12:53:04;2.55;80.93
83660;SHT30;73632;50.808;3.422;2024-01-07T12:55:30;2.51;80.61
83660;SHT30;73632;50.808;3.422;2024-01-07T12:57:56;2.51;80.62
83660;SHT30;73632;50.808;3.422;2024-01-07T13:00:22;2.45;80.96
83660;SHT30;73632;50.808;3.422;2024-01-07T13:02:47;2.45;80.75
83660;SHT30;73632;50.808;3.422;2024-01-07T13:05:13;2.47;80.79
83660;SHT30;73632;50.808;3.422;2024-01-07T13:07:39;2.47;80.92
83660;SHT30;73632;50.808;3.422;2024-01-07T13:10:05;2.40;80.73
83660;SHT30;73632;50.808;3.422;2024-01-07T13:12:31;2.33;81.15
83660;SHT30;73632;50.808;3.422;2024-01-07T13:14:56;2.41;81.20
83660;SHT30;73632;50.808;3.422;2024-01-07T13:17:22;2.42;80.78
83660;SHT30;73632;50.808;3.422;2024-01-07T13:19:47;2.40;81.02
83660;SHT30;73632;50.808;3.422;2024-01-07T13:22:13;2.38;81.78
83660;SHT30;73632;50.808;3.422;2024-01-07T13:24:40;2.40;80.94
83660;SHT30;73632;50.808;3.422;2024-01-07T13:27:06;2.44;80.95
83660;SHT30;73632;50.808;3.422;2024-01-07T13:29:33;2.50;80.40
83660;SHT30;73632;50.808;3.422;2024-01-07T13:31:59;2.50;79.87
83660;SHT30;73632;50.808;3.422;2024-01-07T13:34:24;2.55;79.51
83660;SHT30;73632;50.808;3.422;2024-01-07T13:36:50;2.55;80.13
83660;SHT30;73632;50.808;3.422;2024-01-07T13:39:16;2.58;79.94
83660;SHT30;73632;50.808;3.422;2024-01-07T13:41:43;2.51;78.96
83660;SHT30;73632;50.808;3.422;2024-01-07T13:44:09;2.38;79.34
83660;SHT30;73632;50.808;3.422;2024-01-07T13:46:46;2.33;79.61
83660;SHT30;73632;50.808;3.422;2024-01-07T13:49:15;2.33;80.10
83660;SHT30;73632;50.808;3.422;2024-01-07T13:51:44;2.42;79.57
83660;SHT30;73632;50.808;3.422;2024-01-07T13:54:09;2.48;79.51
83660;SHT30;73632;50.808;3.422;2024-01-07T13:56:38;2.60;79.33
83660;SHT30;73632;50.808;3.422;2024-01-07T13:59:07;2.58;78.67
83660;SHT30;73632;50.808;3.422;2024-01-07T14:01:33;2.45;79.67
83660;SHT30;73632;50.808;3.422;2024-01-07T14:03:59;2.44;79.72
83660;SHT30;73632;50.808;3.422;2024-01-07T14:06:24;2.50;78.98
83660;SHT30;73632;50.808;3.422;2024-01-07T14:08:50;2.48;78.91
83660;SHT30;73632;50.808;3.422;2024-01-07T14:11:17;2.40;79.40
83660;SHT30;73632;50.808;3.422;2024-01-07T14:13:43;2.37;79.72
83660;SHT30;73632;50.808;3.422;2024-01-07T14:16:10;2.37;79.84
83660;SHT30;73632;50.808;3.422;2024-01-07T14:18:36;2.31;79.29
83660;SHT30;73632;50.808;3.422;2024-01-07T14:21:02;2.24;79.89
83660;SHT30;73632;50.808;3.422;2024-01-07T14:23:27;2.24;79.52
83660;SHT30;73632;50.808;3.422;2024-01-07T14:25:55;2.27;79.90
83660;SHT30;73632;50.808;3.422;2024-01-07T14:28:20;2.27;79.99
83660;SHT30;73632;50.808;3.422;2024-01-07T14:30:46;2.34;79.38
83660;SHT30;73632;50.808;3.422;2024-01-07T14:33:11;2.27;79.06
83660;SHT30;73632;50.808;3.422;2024-01-07T14:35:37;2.10;79.76
83660;SHT30;73632;50.808;3.422;2024-01-07T14:38:02;2.11;79.83
83660;SHT30;73632;50.808;3.422;2024-01-07T14:40:29;2.14;79.61
83660;SHT30;73632;50.808;3.422;2024-01-07T14:42:54;2.11;79.67
83660;SHT30;73632;50.808;3.422;2024-01-07T14:45:23;2.14;79.05
83660;SHT30;73632;50.808;3.422;2024-01-07T14:47:48;2.06;79.39
83660;SHT30;73632;50.808;3.422;2024-01-07T14:50:14;2.06;79.94
83660;SHT30;73632;50.808;3.422;2024-01-07T14:52:39;2.14;79.62
83660;SHT30;73632;50.808;3.422;2024-01-07T14:55:05;2.11;79.91
83660;SHT30;73632;50.808;3.422;2024-01-07T14:57:30;2.14;79.27
83660;SHT30;73632;50.808;3.422;2024-01-07T14:59:56;2.14;79.58
83660;SHT30;73632;50.808;3.422;2024-01-07T15:02:21;2.07;78.77
83660;SHT30;73632;50.808;3.422;2024-01-07T15:04:47;2.03;79.37
83660;SHT30;73632;50.808;3.422;2024-01-07T15:07:12;2.02;79.75
83660;SHT30;73632;50.808;3.422;2024-01-07T15:09:38;1.96;79.82
83660;SHT30;73632;50.808;3.422;2024-01-07T15:12:07;1.93;80.02
83660;SHT30;73632;50.808;3.422;2024-01-07T15:14:33;1.99;79.91
83660;SHT30;73632;50.808;3.422;2024-01-07T15:16:59;2.00;80.29
83660;SHT30;73632;50.808;3.422;2024-01-07T15:19:25;2.03;80.58
83660;SHT30;73632;50.808;3.422;2024-01-07T15:21:50;2.05;80.04
83660;SHT30;73632;50.808;3.422;2024-01-07T15:24:16;1.92;80.69
83660;SHT30;73632;50.808;3.422;2024-01-07T15:26:41;1.97;80.42
83660;SHT30;73632;50.808;3.422;2024-01-07T15:29:07;1.97;80.20
83660;SHT30;73632;50.808;3.422;2024-01-07T15:31:32;1.86;79.69
83660;SHT30;73632;50.808;3.422;2024-01-07T15:33:58;1.80;79.46
83660;SHT30;73632;50.808;3.422;2024-01-07T15:36:23;1.86;79.45
83660;SHT30;73632;50.808;3.422;2024-01-07T15:38:48;1.86;79.54